createdAt,value
2018-09-27T00:01:08.436Z,9.90
2018-09-27T00:03:36.898Z,9.90
2018-09-27T00:06:06.750Z,9.90
2018-09-27T00:08:35.086Z,9.90
2018-09-27T00:11:03.434Z,9.90
2018-09-27T00:13:31.684Z,9.90
2018-09-27T00:15:59.942Z,9.90
2018-09-27T00:18:28.870Z,9.90
2018-09-27T00:20:59.435Z,9.90
2018-09-27T00:23:28.932Z,9.80
2018-09-27T00:25:57.293Z,9.80
2018-09-27T00:30:54.399Z,9.80
2018-09-27T00:33:22.931Z,9.70
2018-09-27T00:35:51.186Z,9.70
2018-09-27T00:38:19.652Z,9.70
2018-09-27T00:40:48.266Z,9.60
2018-09-27T00:43:16.575Z,9.70
2018-09-27T00:48:16.294Z,9.80
2018-09-27T00:50:45.843Z,9.70
2018-09-27T00:53:14.879Z,9.70
2018-09-27T00:55:43.378Z,9.70
2018-09-27T00:58:12.877Z,9.60
2018-09-27T01:00:42.217Z,9.60
2018-09-27T01:03:10.547Z,9.60
2018-09-27T01:05:38.824Z,9.50
2018-09-27T01:08:07.137Z,9.60
2018-09-27T01:10:36.886Z,9.50
2018-09-27T01:13:05.260Z,9.60
2018-09-27T01:15:33.841Z,9.50
2018-09-27T01:18:02.736Z,9.50
2018-09-27T01:20:31.080Z,9.50
2018-09-27T01:22:59.459Z,9.50
2018-09-27T01:25:27.765Z,9.40
2018-09-27T01:27:56.647Z,9.40
2018-09-27T01:30:25.009Z,9.30
2018-09-27T01:32:53.555Z,9.30
2018-09-27T01:35:22.139Z,9.20
2018-09-27T01:37:50.416Z,9.20
2018-09-27T01:40:18.753Z,9.20
2018-09-27T01:42:47.026Z,9.20
2018-09-27T01:45:15.345Z,9.20
2018-09-27T01:47:43.629Z,9.20
2018-09-27T01:50:11.976Z,9.20
2018-09-27T01:52:40.250Z,9.20
2018-09-27T01:55:08.537Z,9.20
2018-09-27T02:00:05.278Z,9.10
2018-09-27T02:02:33.550Z,9.10
2018-09-27T02:05:02.438Z,9.10
2018-09-27T02:07:31.311Z,9.00
2018-09-27T02:09:59.836Z,9.00
2018-09-27T02:14:56.904Z,9.00
2018-09-27T02:17:26.083Z,9.00
2018-09-27T02:19:54.428Z,9.00
2018-09-27T02:22:23.075Z,9.00
2018-09-27T02:24:52.197Z,9.00
2018-09-27T02:27:20.539Z,8.90
2018-09-27T02:29:48.954Z,8.90
2018-09-27T02:32:17.763Z,8.90
2018-09-27T02:34:46.778Z,8.80
2018-09-27T02:37:16.200Z,8.70
2018-09-27T02:39:44.466Z,8.70
2018-09-27T02:42:12.941Z,8.70
2018-09-27T02:44:41.517Z,8.70
2018-09-27T02:47:10.104Z,8.70
2018-09-27T02:49:38.363Z,8.70
2018-09-27T02:52:07.527Z,8.70
2018-09-27T02:54:36.524Z,8.70
2018-09-27T02:57:04.850Z,8.70
2018-09-27T02:59:33.149Z,8.70
2018-09-27T03:02:02.771Z,8.70
2018-09-27T03:04:31.373Z,8.70
2018-09-27T03:06:59.789Z,8.60
2018-09-27T03:09:28.348Z,8.70
2018-09-27T03:11:56.935Z,8.70
2018-09-27T03:14:26.060Z,8.70
2018-09-27T03:16:54.915Z,8.80
2018-09-27T03:19:23.866Z,8.70
2018-09-27T03:21:52.202Z,8.60
2018-09-27T03:24:21.823Z,8.60
2018-09-27T03:26:51.175Z,8.60
2018-09-27T03:29:20.455Z,8.50
2018-09-27T03:31:49.656Z,8.50
2018-09-27T03:34:18.311Z,8.40
2018-09-27T03:36:46.684Z,8.40
2018-09-27T03:39:15.108Z,8.40
2018-09-27T03:41:43.601Z,8.40
2018-09-27T03:44:12.395Z,8.40
2018-09-27T03:46:40.747Z,8.40
2018-09-27T03:49:09.414Z,8.30
2018-09-27T03:51:38.035Z,8.20
2018-09-27T03:54:06.950Z,8.20
2018-09-27T03:56:35.702Z,8.20
2018-09-27T03:59:05.005Z,8.20
2018-09-27T04:04:01.508Z,8.10
2018-09-27T04:06:30.457Z,8.20
2018-09-27T04:08:59.514Z,8.20
2018-09-27T04:11:27.859Z,8.10
2018-09-27T04:13:56.251Z,8.20
2018-09-27T04:16:25.129Z,8.20
2018-09-27T04:18:53.539Z,8.20
2018-09-27T04:21:23.145Z,8.10
2018-09-27T04:23:52.034Z,8.10
2018-09-27T04:26:20.405Z,8.00
2018-09-27T04:31:17.333Z,7.90
2018-09-27T04:33:45.923Z,7.80
2018-09-27T04:36:14.641Z,7.80
2018-09-27T04:38:43.513Z,7.80
2018-09-27T04:41:11.861Z,7.80
2018-09-27T04:43:40.295Z,7.80
2018-09-27T04:46:09.643Z,7.90
2018-09-27T04:48:38.056Z,7.90
2018-09-27T04:51:06.777Z,7.80
2018-09-27T04:53:36.363Z,7.80
2018-09-27T04:58:33.140Z,7.90
2018-09-27T05:01:01.661Z,7.90
2018-09-27T05:03:30.587Z,7.90
2018-09-27T05:08:27.351Z,7.90
2018-09-27T05:10:55.898Z,8.00
2018-09-27T05:13:24.653Z,8.00
2018-09-27T05:15:52.930Z,8.10
2018-09-27T05:18:21.270Z,8.10
2018-09-27T05:20:49.675Z,8.10
2018-09-27T05:23:18.768Z,8.20
2018-09-27T05:25:47.067Z,8.10
2018-09-27T05:28:15.448Z,8.10
2018-09-27T05:30:43.846Z,8.10
2018-09-27T05:33:12.426Z,8.00
2018-09-27T05:35:41.259Z,7.90
2018-09-27T05:38:09.933Z,8.00
2018-09-27T05:40:38.631Z,8.00
2018-09-27T05:43:07.581Z,8.00
2018-09-27T05:45:36.301Z,8.00
2018-09-27T05:48:04.636Z,8.00
2018-09-27T05:50:33.093Z,8.20
2018-09-27T05:53:02.071Z,8.30
2018-09-27T05:57:59.606Z,8.50
2018-09-27T06:00:28.021Z,8.60
2018-09-27T06:02:56.399Z,8.70
2018-09-27T06:05:25.144Z,8.70
2018-09-27T06:07:53.739Z,8.70
2018-09-27T06:10:24.027Z,8.70
2018-09-27T06:12:52.304Z,8.70
2018-09-27T06:15:20.580Z,8.70
2018-09-27T06:17:49.243Z,8.80
2018-09-27T06:20:18.888Z,8.90
2018-09-27T06:22:47.451Z,8.90
2018-09-27T06:25:15.833Z,9.00
2018-09-27T06:27:44.137Z,9.10
2018-09-27T06:30:12.549Z,9.30
2018-09-27T06:32:41.281Z,9.30
2018-09-27T06:35:10.947Z,9.40
2018-09-27T06:37:40.154Z,9.50
2018-09-27T06:40:08.612Z,9.60
2018-09-27T06:42:37.015Z,9.70
2018-09-27T06:45:06.752Z,9.70
2018-09-27T06:47:35.128Z,9.80
2018-09-27T06:50:03.743Z,9.90
2018-09-27T06:52:32.478Z,10.00
2018-09-27T06:55:00.920Z,10.10
2018-09-27T06:57:29.583Z,10.30
2018-09-27T06:59:58.089Z,10.30
2018-09-27T07:02:27.392Z,10.40
2018-09-27T07:04:55.706Z,10.50
2018-09-27T07:07:24.103Z,10.60
2018-09-27T07:09:52.368Z,10.70
2018-09-27T07:12:21.489Z,10.70
2018-09-27T07:14:49.631Z,10.80
2018-09-27T07:17:18.261Z,10.90
2018-09-27T07:19:46.642Z,10.90
2018-09-27T07:22:15.389Z,11.00
2018-09-27T07:24:43.870Z,11.10
2018-09-27T07:27:12.149Z,11.20
2018-09-27T07:29:40.597Z,11.30
2018-09-27T07:32:08.919Z,11.40
2018-09-27T07:34:37.478Z,11.60
2018-09-27T07:37:06.593Z,11.60
2018-09-27T07:39:34.942Z,11.80
2018-09-27T07:42:04.042Z,11.90
2018-09-27T07:44:32.677Z,12.10
2018-09-27T07:47:07.736Z,12.20
2018-09-27T07:49:36.104Z,12.20
2018-09-27T07:52:04.785Z,12.30
2018-09-27T07:54:33.181Z,12.40
2018-09-27T07:57:01.907Z,12.50
2018-09-27T07:59:30.574Z,12.80
2018-09-27T08:01:58.868Z,12.90
2018-09-27T08:04:29.455Z,12.90
2018-09-27T08:06:58.691Z,13.00
2018-09-27T08:09:27.547Z,13.10
2018-09-27T08:11:56.240Z,13.20
2018-09-27T08:14:24.855Z,13.30
2018-09-27T08:16:53.212Z,13.30
2018-09-27T08:19:22.121Z,13.50
2018-09-27T08:21:53.259Z,13.60
2018-09-27T08:24:22.526Z,13.70
2018-09-27T08:26:52.129Z,13.80
2018-09-27T08:29:20.526Z,13.90
2018-09-27T08:31:48.804Z,14.00
2018-09-27T08:34:18.101Z,14.20
2018-09-27T08:36:46.744Z,14.30
2018-09-27T08:39:14.988Z,14.30
2018-09-27T08:41:43.434Z,14.50
2018-09-27T08:44:12.393Z,14.50
2018-09-27T08:46:41.954Z,14.80
2018-09-27T08:49:12.049Z,14.90
2018-09-27T08:51:40.502Z,15.00
2018-09-27T08:54:10.409Z,15.00
2018-09-27T08:56:39.457Z,15.10
2018-09-27T08:59:08.927Z,15.10
2018-09-27T09:01:38.112Z,15.30
2018-09-27T09:04:07.064Z,15.30
2018-09-27T09:06:35.527Z,15.30
2018-09-27T09:09:10.456Z,15.40
2018-09-27T09:11:38.750Z,15.60
2018-09-27T09:14:07.588Z,15.60
2018-09-27T09:16:39.058Z,16.00
2018-09-27T09:19:07.604Z,16.10
2018-09-27T09:21:36.059Z,16.10
2018-09-27T09:24:06.369Z,16.20
2018-09-27T09:26:37.381Z,16.30
2018-09-27T09:29:06.170Z,16.50
2018-09-27T09:31:34.445Z,16.70
2018-09-27T09:34:04.428Z,16.80
2018-09-27T09:36:32.976Z,16.90
2018-09-27T09:39:01.395Z,17.00
2018-09-27T09:41:29.792Z,17.20
2018-09-27T09:43:58.720Z,17.30
2018-09-27T09:46:27.429Z,17.40
2018-09-27T09:48:56.805Z,17.60
2018-09-27T09:51:25.250Z,17.70
2018-09-27T09:53:56.474Z,18.00
2018-09-27T09:56:26.273Z,18.00
2018-09-27T09:58:55.089Z,18.10
2018-09-27T10:01:24.204Z,18.30
2018-09-27T10:03:53.719Z,18.50
2018-09-27T10:06:22.958Z,18.60
2018-09-27T10:08:51.511Z,18.80
2018-09-27T10:11:21.035Z,18.90
2018-09-27T10:13:49.900Z,19.20
2018-09-27T10:16:18.580Z,19.20
2018-09-27T10:18:48.685Z,19.40
2018-09-27T10:21:19.088Z,19.50
2018-09-27T10:23:50.054Z,19.60
2018-09-27T10:26:19.492Z,19.80
2018-09-27T10:28:48.133Z,20.10
2018-09-27T10:31:16.898Z,20.00
2018-09-27T10:33:45.564Z,20.30
2018-09-27T10:36:14.831Z,20.50
2018-09-27T10:38:46.187Z,20.50
2018-09-27T10:41:15.016Z,20.70
2018-09-27T10:43:43.636Z,20.80
2018-09-27T10:46:12.274Z,21.00
2018-09-27T10:48:40.945Z,21.20
2018-09-27T10:51:09.952Z,21.40
2018-09-27T10:53:40.211Z,21.60
2018-09-27T10:56:09.164Z,21.80
2018-09-27T10:58:37.995Z,21.90
2018-09-27T11:01:06.977Z,22.00
2018-09-27T11:03:35.884Z,22.00
2018-09-27T11:06:04.182Z,22.10
2018-09-27T11:08:33.268Z,22.20
2018-09-27T11:11:02.323Z,22.30
2018-09-27T11:13:31.045Z,22.30
2018-09-27T11:15:59.698Z,22.40
2018-09-27T11:18:28.472Z,22.50
2018-09-27T11:20:56.843Z,22.50
2018-09-27T11:23:25.556Z,22.70
2018-09-27T11:25:54.218Z,22.90
2018-09-27T11:28:22.566Z,23.10
2018-09-27T11:30:56.678Z,23.20
2018-09-27T11:33:26.398Z,23.40
2018-09-27T11:35:54.911Z,23.50
2018-09-27T11:38:23.594Z,23.60
2018-09-27T11:40:52.379Z,23.50
2018-09-27T11:43:21.064Z,23.60
2018-09-27T11:45:49.862Z,23.70
2018-09-27T11:48:19.161Z,23.60
2018-09-27T11:50:49.589Z,23.70
2018-09-27T11:53:20.331Z,23.80
2018-09-27T11:55:49.950Z,23.90
2018-09-27T11:58:20.826Z,23.90
2018-09-27T12:00:55.150Z,23.90
2018-09-27T12:03:28.623Z,23.80
2018-09-27T12:05:58.303Z,23.60
2018-09-27T12:11:01.171Z,23.70
2018-09-27T12:13:30.749Z,23.70
2018-09-27T12:16:01.310Z,23.90
2018-09-27T12:18:31.412Z,24.10
2018-09-27T12:20:59.969Z,24.00
2018-09-27T12:23:28.587Z,24.00
2018-09-27T12:25:57.152Z,23.80
2018-09-27T12:28:26.240Z,23.70
2018-09-27T12:30:54.734Z,23.70
2018-09-27T12:33:23.789Z,23.80
2018-09-27T12:35:54.257Z,24.00
2018-09-27T12:38:22.649Z,24.30
2018-09-27T12:40:50.873Z,24.30
2018-09-27T12:43:19.714Z,24.40
2018-09-27T12:45:48.378Z,24.40
2018-09-27T12:48:17.607Z,21.90
2018-09-27T12:50:51.886Z,24.50
2018-09-27T12:53:20.264Z,24.70
2018-09-27T12:55:49.552Z,24.90
2018-09-27T12:58:18.879Z,25.00
2018-09-27T13:00:49.083Z,25.00
2018-09-27T13:03:18.649Z,25.10
2018-09-27T13:05:47.784Z,25.30
2018-09-27T13:08:16.024Z,25.50
2018-09-27T13:10:44.568Z,25.40
2018-09-27T13:13:13.304Z,25.70
2018-09-27T13:15:42.352Z,25.40
2018-09-27T13:18:11.480Z,25.40
2018-09-27T13:20:39.964Z,25.80
2018-09-27T13:23:08.436Z,26.90
2018-09-27T13:25:36.991Z,27.70
2018-09-27T13:28:06.357Z,28.10
2018-09-27T13:30:34.803Z,28.90
2018-09-27T13:33:03.141Z,29.70
2018-09-27T13:35:31.663Z,31.30
2018-09-27T13:38:17.617Z,32.50
2018-09-27T13:40:52.676Z,32.60
2018-09-27T13:43:21.046Z,33.20
2018-09-27T13:45:49.628Z,32.50
2018-09-27T13:48:18.841Z,33.20
2018-09-27T13:53:16.322Z,33.30
2018-09-27T13:55:45.897Z,34.40
2018-09-27T13:58:15.528Z,34.40
2018-09-27T14:00:44.511Z,35.00
2018-09-27T14:03:13.267Z,35.10
2018-09-27T14:05:42.122Z,35.70
2018-09-27T14:08:11.320Z,35.30
2018-09-27T14:10:39.992Z,35.20
2018-09-27T14:13:08.369Z,35.40
2018-09-27T14:15:36.604Z,35.30
2018-09-27T14:18:05.744Z,35.00
2018-09-27T14:20:34.233Z,33.80
2018-09-27T14:23:02.668Z,33.70
2018-09-27T14:25:32.738Z,34.00
2018-09-27T14:28:02.121Z,35.40
2018-09-27T14:30:31.986Z,35.50
2018-09-27T14:33:00.276Z,35.70
2018-09-27T14:35:30.478Z,34.90
2018-09-27T14:37:59.489Z,35.10
2018-09-27T14:40:30.763Z,34.90
2018-09-27T14:42:59.255Z,34.90
2018-09-27T14:45:27.710Z,34.50
2018-09-27T14:47:57.139Z,34.50
2018-09-27T14:50:27.168Z,34.40
2018-09-27T14:52:56.508Z,34.50
2018-09-27T14:55:25.449Z,34.20
2018-09-27T14:57:54.583Z,35.40
2018-09-27T15:00:23.672Z,35.00
2018-09-27T15:02:53.016Z,34.80
2018-09-27T15:05:22.407Z,34.80
2018-09-27T15:07:51.165Z,34.70
2018-09-27T15:10:21.161Z,34.20
2018-09-27T15:12:49.465Z,33.40
2018-09-27T15:15:17.964Z,33.60
2018-09-27T15:17:46.888Z,33.80
2018-09-27T15:20:16.648Z,33.40
2018-09-27T15:22:45.706Z,33.20
2018-09-27T15:25:14.414Z,33.10
2018-09-27T15:27:43.500Z,34.10
2018-09-27T15:30:12.154Z,34.10
2018-09-27T15:32:40.460Z,33.70
2018-09-27T15:35:09.339Z,34.40
2018-09-27T15:37:37.937Z,34.90
2018-09-27T15:40:06.337Z,34.90
2018-09-27T15:42:34.807Z,33.80
2018-09-27T15:45:03.647Z,32.90
2018-09-27T15:47:31.906Z,32.30
2018-09-27T15:50:00.433Z,31.90
2018-09-27T15:57:25.540Z,31.70
2018-09-27T15:59:54.314Z,31.80
2018-09-27T16:02:23.019Z,31.80
2018-09-27T16:07:20.359Z,30.50
2018-09-27T16:09:48.640Z,29.70
2018-09-27T16:12:17.669Z,28.60
2018-09-27T16:14:46.361Z,28.40
2018-09-27T16:17:14.865Z,26.30
2018-09-27T16:19:43.614Z,26.30
2018-09-27T16:22:11.915Z,25.50
2018-09-27T16:24:40.779Z,24.90
2018-09-27T16:27:11.923Z,24.20
2018-09-27T16:29:40.519Z,24.00
2018-09-27T16:32:09.521Z,23.60
2018-09-27T16:34:37.832Z,23.20
2018-09-27T16:37:07.032Z,23.10
2018-09-27T16:39:35.328Z,22.90
2018-09-27T16:42:03.610Z,22.70
2018-09-27T16:44:32.095Z,22.50
2018-09-27T16:47:00.290Z,22.30
2018-09-27T16:49:28.747Z,22.10
2018-09-27T16:51:57.433Z,21.80
2018-09-27T16:54:26.124Z,21.70
2018-09-27T16:56:54.765Z,21.80
2018-09-27T17:01:51.648Z,21.20
2018-09-27T17:04:20.090Z,21.10
2018-09-27T17:06:48.416Z,21.00
2018-09-27T17:09:17.161Z,21.00
2018-09-27T17:11:45.435Z,20.90
2018-09-27T17:14:13.821Z,20.90
2018-09-27T17:16:42.439Z,20.80
2018-09-27T17:19:11.311Z,20.70
2018-09-27T17:21:39.608Z,20.70
2018-09-27T17:24:08.097Z,20.60
2018-09-27T17:26:37.337Z,20.60
2018-09-27T17:29:05.784Z,20.40
2018-09-27T17:31:34.383Z,20.40
2018-09-27T17:34:02.642Z,20.10
2018-09-27T17:36:32.284Z,20.10
2018-09-27T17:39:00.694Z,19.70
2018-09-27T17:41:29.298Z,19.50
2018-09-27T17:43:58.102Z,19.30
2018-09-27T17:46:26.513Z,19.20
2018-09-27T17:48:55.010Z,19.20
2018-09-27T17:51:24.965Z,18.90
2018-09-27T17:53:53.413Z,18.90
2018-09-27T17:56:23.056Z,18.70
2018-09-27T18:01:20.072Z,18.50
2018-09-27T18:03:48.655Z,18.30
2018-09-27T18:06:17.059Z,18.30
2018-09-27T18:08:45.353Z,18.30
2018-09-27T18:11:13.664Z,18.10
2018-09-27T18:13:42.020Z,18.00
2018-09-27T18:16:10.596Z,17.80
2018-09-27T18:18:39.208Z,17.80
2018-09-27T18:21:07.885Z,17.60
2018-09-27T18:23:36.441Z,17.50
2018-09-27T18:26:05.841Z,17.40
2018-09-27T18:28:34.247Z,17.40
2018-09-27T18:31:02.555Z,17.40
2018-09-27T18:33:30.868Z,17.20
2018-09-27T18:35:59.464Z,17.20
2018-09-27T18:38:28.027Z,17.10
2018-09-27T18:40:56.417Z,17.10
2018-09-27T18:43:25.124Z,17.10
2018-09-27T18:45:53.483Z,16.90
2018-09-27T18:48:22.103Z,16.90
2018-09-27T18:50:50.668Z,16.70
2018-09-27T18:53:18.932Z,16.50
2018-09-27T18:55:47.451Z,16.60
2018-09-27T18:58:15.792Z,16.50
2018-09-27T19:00:44.119Z,16.40
2018-09-27T19:03:13.315Z,16.60
2018-09-27T19:05:42.030Z,16.30
2018-09-27T19:08:10.506Z,16.30
2018-09-27T19:10:38.855Z,16.10
2018-09-27T19:13:07.338Z,16.20
2018-09-27T19:15:35.705Z,16.00
2018-09-27T19:18:04.910Z,16.00
2018-09-27T19:20:33.413Z,15.90
2018-09-27T19:23:01.734Z,15.90
2018-09-27T19:25:30.046Z,15.80
2018-09-27T19:27:58.595Z,15.80
2018-09-27T19:30:27.745Z,15.80
2018-09-27T19:32:56.399Z,15.80
2018-09-27T19:35:24.810Z,15.80
2018-09-27T19:37:53.501Z,15.70
2018-09-27T19:40:21.911Z,15.80
2018-09-27T19:42:50.975Z,15.80
2018-09-27T19:45:19.591Z,15.90
2018-09-27T19:47:48.198Z,15.80
2018-09-27T19:50:16.728Z,15.50
2018-09-27T19:52:45.637Z,15.60
2018-09-27T19:55:14.722Z,15.40
2018-09-27T19:57:43.104Z,15.40
2018-09-27T20:00:11.424Z,15.40
2018-09-27T20:02:41.325Z,15.30
2018-09-27T20:05:09.489Z,15.30
2018-09-27T20:07:38.251Z,15.30
2018-09-27T20:10:07.847Z,15.30
2018-09-27T20:12:36.142Z,15.40
2018-09-27T20:15:05.220Z,15.20
2018-09-27T20:17:34.042Z,15.20
2018-09-27T20:20:03.103Z,15.00
2018-09-27T20:22:31.783Z,15.00
2018-09-27T20:25:00.318Z,14.90
2018-09-27T20:27:29.190Z,14.90
2018-09-27T20:29:58.572Z,14.70
2018-09-27T20:32:28.064Z,14.70
2018-09-27T20:34:58.056Z,14.70
2018-09-27T20:37:26.814Z,14.60
2018-09-27T20:39:56.153Z,14.60
2018-09-27T20:42:24.441Z,14.60
2018-09-27T20:47:21.128Z,14.50
2018-09-27T20:49:49.832Z,14.50
2018-09-27T20:52:18.521Z,14.50
2018-09-27T20:54:47.300Z,14.50
2018-09-27T20:57:15.581Z,14.40
2018-09-27T20:59:48.290Z,14.50
2018-09-27T21:04:45.826Z,14.40
2018-09-27T21:07:14.172Z,14.40
2018-09-27T21:09:42.482Z,14.40
2018-09-27T21:12:10.788Z,14.40
2018-09-27T21:14:39.070Z,14.30
2018-09-27T21:17:07.545Z,14.20
2018-09-27T21:19:36.647Z,14.20
2018-09-27T21:22:04.984Z,14.20
2018-09-27T21:24:33.350Z,14.20
2018-09-27T21:29:29.924Z,14.00
2018-09-27T21:31:58.204Z,14.00
2018-09-27T21:34:26.503Z,14.00
2018-09-27T21:36:55.141Z,13.90
2018-09-27T21:39:23.740Z,13.90
2018-09-27T21:41:52.726Z,13.90
2018-09-27T21:44:22.269Z,13.80
2018-09-27T21:46:50.784Z,13.70
2018-09-27T21:49:19.931Z,13.70
2018-09-27T21:51:48.720Z,13.70
2018-09-27T21:54:17.336Z,13.80
2018-09-27T21:56:46.049Z,13.80
2018-09-27T21:59:14.856Z,13.90
2018-09-27T22:01:43.436Z,13.70
2018-09-27T22:04:13.179Z,13.70
2018-09-27T22:06:41.613Z,13.80
2018-09-27T22:09:10.510Z,13.80
2018-09-27T22:11:40.055Z,13.60
2018-09-27T22:14:08.663Z,13.50
2018-09-27T22:16:36.975Z,13.40
2018-09-27T22:19:05.323Z,13.40
2018-09-27T22:21:33.677Z,13.30
2018-09-27T22:24:01.968Z,13.20
2018-09-27T22:26:30.202Z,13.20
2018-09-27T22:28:59.047Z,13.40
2018-09-27T22:31:27.360Z,13.40
2018-09-27T22:33:56.028Z,13.40
2018-09-27T22:36:24.866Z,13.30
2018-09-27T22:38:53.629Z,13.20
2018-09-27T22:41:22.257Z,13.00
2018-09-27T22:43:51.589Z,13.10
2018-09-27T22:46:20.508Z,13.10
2018-09-27T22:48:49.383Z,13.20
2018-09-27T22:51:17.678Z,13.20
2018-09-27T22:53:45.938Z,13.10
2018-09-27T22:56:14.289Z,13.10
2018-09-27T22:58:42.708Z,13.00
2018-09-27T23:01:11.578Z,13.00
2018-09-27T23:03:39.998Z,12.90
2018-09-27T23:06:08.320Z,13.00
2018-09-27T23:08:36.547Z,13.00
2018-09-27T23:11:04.876Z,12.90
2018-09-27T23:13:33.513Z,12.90
2018-09-27T23:16:02.053Z,12.90
2018-09-27T23:18:30.320Z,12.80
2018-09-27T23:20:59.387Z,12.80
2018-09-27T23:23:28.303Z,12.80
2018-09-27T23:25:56.918Z,12.70
2018-09-27T23:28:25.205Z,12.70
2018-09-27T23:30:53.485Z,12.80
2018-09-27T23:33:21.892Z,12.80
2018-09-27T23:35:50.223Z,12.90
2018-09-27T23:38:18.570Z,12.90
2018-09-27T23:40:46.917Z,12.80
2018-09-27T23:43:15.485Z,12.80
2018-09-27T23:45:44.081Z,12.70
2018-09-27T23:48:12.323Z,12.60
2018-09-27T23:50:40.661Z,12.60
2018-09-27T23:53:09.070Z,12.60
2018-09-27T23:55:37.341Z,12.50
2018-09-27T23:58:06.568Z,12.50
